Time;durP1;ratioP1;P1;durP2;ratioP2;P2;SDS_P1;SDS_P2;PMS_P1;PMS_P2;Temp;Humidity;BMP_temperature;BMP_pressure;BME280_temperature;BME280_humidity;BME280_pressure;Samples;Min_cycle;Max_cycle;Signal;HPM_P1;HPM_P2
2022/04/03 00:00:48;;;;;;;13.13;5.53;;;0.90;99.90;;;;;;4988835;28;20065;-70
2022/04/03 00:03:16;;;;;;;9.70;4.35;;;0.90;99.90;;;;;;5004535;28;20046;-66
2022/04/03 00:05:44;;;;;;;7.95;3.55;;;0.90;99.90;;;;;;4991647;28;20058;-66
2022/04/03 00:08:12;;;;;;;8.73;4.40;;;0.90;99.90;;;;;;4991306;28;20394;-64
2022/04/03 00:10:41;;;;;;;10.43;4.38;;;0.90;99.90;;;;;;4991295;28;20054;-64
2022/04/03 00:13:09;;;;;;;7.97;4.28;;;0.90;99.90;;;;;;4995602;28;20050;-63
2022/04/03 00:15:41;;;;;;;7.97;4.38;;;0.80;99.90;;;;;;5010898;28;20100;-67
2022/04/03 00:18:10;;;;;;;10.93;4.97;;;0.80;99.90;;;;;;5006398;28;20050;-63
2022/04/03 00:20:40;;;;;;;12.75;5.05;;;0.70;99.90;;;;;;4991293;28;20049;-65
2022/04/03 00:23:08;;;;;;;10.30;5.03;;;0.70;99.90;;;;;;4977790;28;20046;-64
2022/04/03 00:25:37;;;;;;;13.73;5.40;;;0.70;99.90;;;;;;4977111;28;20045;-63
2022/04/03 00:28:05;;;;;;;9.68;4.35;;;0.70;99.90;;;;;;5008952;28;20054;-63
2022/04/03 00:30:34;;;;;;;15.75;4.88;;;0.60;99.90;;;;;;4990499;28;20374;-65
2022/04/03 00:33:02;;;;;;;7.82;5.10;;;0.60;99.90;;;;;;5005885;28;20042;-65
2022/04/03 00:35:29;;;;;;;8.73;4.57;;;0.60;99.90;;;;;;4990819;28;20050;-63
2022/04/03 00:37:57;;;;;;;12.15;5.07;;;0.60;99.90;;;;;;4977375;28;20057;-66
2022/04/03 00:40:26;;;;;;;10.93;4.35;;;0.50;99.90;;;;;;5010456;28;20048;-63
2022/04/03 00:42:54;;;;;;;9.68;4.85;;;0.50;99.90;;;;;;5010158;28;20046;-67
2022/04/03 00:45:22;;;;;;;9.38;4.35;;;0.50;99.90;;;;;;5005684;28;20049;-66
2022/04/03 00:47:55;;;;;;;16.25;4.78;;;0.50;99.90;;;;;;5007540;28;20054;-65
2022/04/03 00:50:24;;;;;;;8.05;4.10;;;0.50;99.90;;;;;;4993693;28;20378;-62
2022/04/03 00:52:52;;;;;;;12.38;5.50;;;0.50;99.90;;;;;;4992179;28;20410;-63
2022/04/03 00:55:20;;;;;;;9.85;4.97;;;0.40;99.90;;;;;;4999561;28;20046;-65
2022/04/03 00:57:47;;;;;;;11.23;5.57;;;0.40;99.90;;;;;;4993366;28;20056;-65
2022/04/03 01:00:17;;;;;;;9.40;4.35;;;0.40;99.90;;;;;;4988169;28;20042;-66
2022/04/03 01:02:44;;;;;;;12.07;4.53;;;0.30;99.90;;;;;;5006867;28;20061;-64
2022/04/03 01:05:12;;;;;;;11.45;5.03;;;0.30;99.90;;;;;;4987056;28;20043;-63
2022/04/03 01:07:41;;;;;;;8.02;4.65;;;0.30;99.90;;;;;;4971428;28;20054;-63
2022/04/03 01:10:09;;;;;;;8.75;5.15;;;0.20;99.90;;;;;;4990026;28;20073;-62
2022/04/03 01:12:40;;;;;;;8.75;5.20;;;0.20;99.90;;;;;;4993812;28;20046;-62
2022/04/03 01:15:19;;;;;;;8.55;4.20;;;0.20;99.90;;;;;;5009189;28;20042;-63
2022/04/03 01:17:47;;;;;;;13.70;4.97;;;0.20;99.90;;;;;;5006746;28;20092;-63
2022/04/03 01:20:15;;;;;;;9.55;4.85;;;0.20;99.90;;;;;;4990157;28;20050;-65
2022/04/03 01:22:43;;;;;;;8.18;4.68;;;0.10;99.90;;;;;;5009221;28;20408;-64
2022/04/03 01:25:11;;;;;;;9.82;4.93;;;0.10;99.90;;;;;;5010308;28;20042;-64
2022/04/03 01:27:39;;;;;;;6.53;4.25;;;0.00;99.90;;;;;;5009281;28;20513;-64
2022/04/03 01:30:10;;;;;;;13.87;5.17;;;0.00;99.90;;;;;;5009549;28;20065;-64
2022/04/03 01:32:39;;;;;;;12.38;4.78;;;0.00;99.90;;;;;;4999050;28;20050;-64
2022/04/03 01:35:07;;;;;;;8.88;4.57;;;0.00;99.90;;;;;;4987133;28;20049;-65
2022/04/03 01:37:35;;;;;;;8.32;4.57;;;0.00;99.90;;;;;;5012076;28;20046;-66
2022/04/03 01:40:04;;;;;;;11.70;5.32;;;0.00;99.90;;;;;;5012226;28;20405;-63
2022/04/03 01:42:32;;;;;;;14.35;5.00;;;-0.10;99.90;;;;;;5012392;28;20046;-64
2022/04/03 01:45:00;;;;;;;11.27;4.75;;;-0.10;99.90;;;;;;5003544;28;20042;-64
2022/04/03 01:47:27;;;;;;;7.50;4.32;;;-0.10;99.90;;;;;;4997953;28;20065;-65
2022/04/03 01:49:55;;;;;;;11.30;4.57;;;-0.10;99.90;;;;;;5011434;28;20489;-65
2022/04/03 01:52:23;;;;;;;10.88;4.55;;;-0.20;99.90;;;;;;5005545;28;20644;-63
2022/04/03 01:54:51;;;;;;;8.43;4.20;;;-0.20;99.90;;;;;;4992521;28;20051;-64
2022/04/03 01:57:18;;;;;;;11.15;4.68;;;-0.20;99.90;;;;;;4959065;28;20070;-64
2022/04/03 01:59:46;;;;;;;9.05;4.80;;;-0.30;99.90;;;;;;5002561;28;20054;-63
2022/04/03 02:02:14;;;;;;;14.15;5.78;;;-0.30;99.90;;;;;;5012060;28;20057;-63
2022/04/03 02:04:41;;;;;;;13.27;5.32;;;-0.30;99.90;;;;;;4994538;28;20084;-64
2022/04/03 02:07:09;;;;;;;10.07;5.05;;;-0.30;99.90;;;;;;5011786;28;20486;-65
2022/04/03 02:09:37;;;;;;;13.40;5.57;;;-0.30;99.90;;;;;;5011986;28;20054;-65
2022/04/03 02:12:06;;;;;;;12.52;4.85;;;-0.30;99.90;;;;;;5007131;28;20034;-65
2022/04/03 02:14:34;;;;;;;8.75;5.07;;;-0.30;99.90;;;;;;4992117;28;20497;-62
2022/04/03 02:17:02;;;;;;;11.52;5.28;;;-0.20;99.90;;;;;;4975166;28;20041;-65
2022/04/03 02:19:31;;;;;;;9.60;4.65;;;-0.30;99.90;;;;;;4992523;28;20042;-63
2022/04/03 02:21:59;;;;;;;16.63;4.60;;;-0.30;99.90;;;;;;5001718;28;20101;-63
2022/04/03 02:24:27;;;;;;;13.60;5.68;;;-0.30;99.90;;;;;;4994077;28;20050;-63
2022/04/03 02:26:54;;;;;;;8.80;4.18;;;-0.30;99.90;;;;;;5011868;28;20045;-62
2022/04/03 02:29:22;;;;;;;10.07;5.32;;;-0.30;99.90;;;;;;4994411;28;20042;-63
2022/04/03 02:31:49;;;;;;;13.75;5.40;;;-0.40;99.90;;;;;;5010325;28;20042;-62
2022/04/03 02:34:17;;;;;;;11.13;5.38;;;-0.40;99.90;;;;;;5000412;28;20049;-62
2022/04/03 02:36:45;;;;;;;17.10;5.82;;;-0.40;99.90;;;;;;4994458;28;20072;-62
2022/04/03 02:39:13;;;;;;;18.10;5.95;;;-0.40;99.90;;;;;;5010797;28;20402;-62
2022/04/03 02:41:40;;;;;;;12.10;4.93;;;-0.50;99.90;;;;;;4990107;28;20413;-62
2022/04/03 02:44:08;;;;;;;15.07;5.05;;;-0.50;99.90;;;;;;4994511;28;20056;-62
2022/04/03 02:46:36;;;;;;;16.27;5.57;;;-0.50;99.90;;;;;;5011990;28;20054;-62
2022/04/03 02:49:04;;;;;;;8.38;4.70;;;-0.50;99.90;;;;;;5011876;28;20041;-63
2022/04/03 02:51:31;;;;;;;14.98;5.85;;;-0.60;99.90;;;;;;5012757;28;20050;-64
2022/04/03 02:53:59;;;;;;;10.75;4.82;;;-0.60;99.90;;;;;;5013070;28;20069;-67
2022/04/03 02:56:27;;;;;;;13.43;5.78;;;-0.60;99.90;;;;;;5012978;28;20501;-64
2022/04/03 02:58:55;;;;;;;12.13;5.55;;;-0.60;99.90;;;;;;5013275;28;20409;-63
2022/04/03 03:01:23;;;;;;;11.77;4.90;;;-0.70;99.90;;;;;;5013043;28;20050;-63
2022/04/03 03:03:51;;;;;;;12.88;5.80;;;-0.70;99.90;;;;;;5011996;28;20050;-64
2022/04/03 03:06:19;;;;;;;8.75;5.30;;;-0.70;99.90;;;;;;5011515;28;20042;-62
2022/04/03 03:08:47;;;;;;;12.55;4.97;;;-0.80;99.90;;;;;;5011613;28;20034;-62
2022/04/03 03:11:15;;;;;;;7.93;4.93;;;-0.80;99.90;;;;;;4994039;28;20070;-63
2022/04/03 03:13:42;;;;;;;10.15;5.35;;;-0.80;99.90;;;;;;5011149;28;20049;-62
2022/04/03 03:16:10;;;;;;;14.43;4.68;;;-0.80;99.90;;;;;;5011483;28;20046;-62
2022/04/03 03:18:38;;;;;;;10.05;5.57;;;-0.80;99.90;;;;;;5011173;28;20068;-62
2022/04/03 03:21:06;;;;;;;15.77;4.75;;;-0.80;99.90;;;;;;5010857;28;20049;-62
2022/04/03 03:23:34;;;;;;;10.35;4.65;;;-0.80;99.90;;;;;;5011680;28;20394;-63
2022/04/03 03:26:01;;;;;;;8.98;5.28;;;-0.80;99.90;;;;;;5012014;28;20038;-64
2022/04/03 03:28:29;;;;;;;14.85;5.15;;;-0.90;99.90;;;;;;5011187;28;20393;-65
2022/04/03 03:30:57;;;;;;;9.80;5.13;;;-0.90;99.90;;;;;;4993798;28;20038;-65
2022/04/03 03:33:24;;;;;;;9.63;4.93;;;-0.90;99.90;;;;;;5011243;28;20041;-63
2022/04/03 03:35:55;;;;;;;11.45;5.68;;;-0.90;99.90;;;;;;5011199;28;20363;-64
2022/04/03 03:38:22;;;;;;;14.10;5.97;;;-0.90;99.90;;;;;;5013986;28;20169;-63
2022/04/03 03:40:50;;;;;;;11.10;5.47;;;-0.90;99.90;;;;;;5014670;28;20037;-64
2022/04/03 03:43:18;;;;;;;10.70;4.75;;;-0.90;99.90;;;;;;5014857;28;20052;-64
2022/04/03 03:45:46;;;;;;;12.43;5.25;;;-0.90;99.90;;;;;;4997007;28;20049;-65
2022/04/03 03:48:13;;;;;;;15.55;5.60;;;-1.00;99.90;;;;;;5014551;28;20066;-61
2022/04/03 03:50:41;;;;;;;9.77;4.72;;;-1.00;99.90;;;;;;5014882;28;20046;-63
2022/04/03 03:53:09;;;;;;;12.75;7.10;;;-1.00;99.90;;;;;;5014779;28;20048;-61
2022/04/03 03:55:37;;;;;;;9.85;4.88;;;-1.00;99.90;;;;;;5014288;28;20489;-62
2022/04/03 03:58:05;;;;;;;13.05;5.55;;;-1.00;99.90;;;;;;5014414;28;20042;-61
2022/04/03 04:00:33;;;;;;;9.50;4.97;;;-1.00;99.90;;;;;;5014172;28;20046;-61
2022/04/03 04:03:01;;;;;;;12.68;5.43;;;-1.10;99.90;;;;;;5014257;28;20050;-61
2022/04/03 04:05:28;;;;;;;12.73;5.32;;;-1.00;99.90;;;;;;5014344;28;20053;-62
2022/04/03 04:07:56;;;;;;;11.35;5.35;;;-1.00;99.90;;;;;;4996680;28;20046;-61
2022/04/03 04:10:23;;;;;;;11.55;5.57;;;-1.00;99.90;;;;;;5014076;28;20054;-61
2022/04/03 04:12:51;;;;;;;11.48;5.32;;;-0.90;99.90;;;;;;5014044;28;20050;-63
2022/04/03 04:15:19;;;;;;;10.60;5.90;;;-0.90;99.90;;;;;;4996690;28;20050;-62
2022/04/03 04:17:48;;;;;;;11.15;5.28;;;-0.80;99.90;;;;;;5013896;28;20045;-62
2022/04/03 04:20:17;;;;;;;11.67;5.83;;;-0.80;99.90;;;;;;5014170;28;20056;-64
2022/04/03 04:22:47;;;;;;;14.90;5.82;;;-0.70;99.90;;;;;;5013967;28;20065;-63
2022/04/03 04:25:16;;;;;;;11.48;5.13;;;-0.70;99.90;;;;;;5013851;28;20066;-63
2022/04/03 04:27:44;;;;;;;11.48;5.97;;;-0.60;99.90;;;;;;5012626;28;20053;-61
2022/04/03 04:30:14;;;;;;;13.57;6.57;;;-0.60;99.90;;;;;;5013950;28;20394;-64
2022/04/03 04:32:42;;;;;;;12.20;6.75;;;-0.60;99.90;;;;;;5013826;28;20050;-60
2022/04/03 04:35:10;;;;;;;11.85;5.80;;;-0.50;99.90;;;;;;4996269;28;20049;-61
2022/04/03 04:37:38;;;;;;;11.13;5.28;;;-0.50;99.90;;;;;;5012416;28;20042;-61
2022/04/03 04:40:06;;;;;;;11.40;6.00;;;-0.60;99.90;;;;;;5013512;28;20061;-61
2022/04/03 04:42:34;;;;;;;16.80;7.15;;;-0.60;99.90;;;;;;5013638;28;20038;-62
2022/04/03 04:45:04;;;;;;;12.52;6.35;;;-0.60;99.90;;;;;;5013480;28;20513;-61
2022/04/03 04:47:37;;;;;;;15.20;6.45;;;-0.60;99.90;;;;;;5007380;28;20050;-61
2022/04/03 04:50:10;;;;;;;16.05;6.82;;;-0.60;99.90;;;;;;4990114;28;20414;-64
2022/04/03 04:52:39;;;;;;;14.38;6.25;;;-0.70;99.90;;;;;;4990513;28;20065;-62
2022/04/03 04:55:08;;;;;;;28.23;6.20;;;-0.70;99.90;;;;;;4990349;28;20057;-63
2022/04/03 04:57:37;;;;;;;12.80;5.95;;;-0.70;99.90;;;;;;4995454;28;20652;-63
2022/04/03 05:00:13;;;;;;;14.02;6.88;;;-0.70;99.90;;;;;;4988639;28;20065;-63
2022/04/03 05:02:45;;;;;;;13.85;6.07;;;-0.60;99.90;;;;;;4989855;28;20500;-62
2022/04/03 05:05:14;;;;;;;13.30;5.57;;;-0.60;99.90;;;;;;5000853;28;20053;-63
2022/04/03 05:07:43;;;;;;;9.50;5.60;;;-0.60;99.90;;;;;;5000899;28;20054;-63
2022/04/03 05:10:15;;;;;;;14.85;6.47;;;-0.50;99.90;;;;;;4973238;28;20055;-63
2022/04/03 05:12:44;;;;;;;24.35;6.78;;;-0.50;99.90;;;;;;4990008;28;20528;-65
2022/04/03 05:15:12;;;;;;;13.02;6.03;;;-0.50;99.90;;;;;;5002153;28;20038;-61
2022/04/03 05:17:41;;;;;;;18.05;7.63;;;-0.50;99.90;;;;;;5009658;28;20065;-61
2022/04/03 05:20:11;;;;;;;18.67;6.70;;;-0.40;99.90;;;;;;5004886;28;20046;-61
2022/04/03 05:22:41;;;;;;;19.13;6.60;;;-0.40;99.90;;;;;;4971850;28;20049;-62
2022/04/03 05:25:11;;;;;;;13.65;7.10;;;-0.40;99.90;;;;;;5006916;28;20069;-65
2022/04/03 05:27:39;;;;;;;;;;;-0.40;99.90;;;;;;5004717;28;20049;-61
2022/04/03 05:30:08;;;;;;;16.02;5.75;;;-0.30;99.90;;;;;;4989664;28;19945;-61
2022/04/03 05:32:36;;;;;;;15.60;6.75;;;-0.30;99.90;;;;;;4986091;28;20505;-61
2022/04/03 05:35:06;;;;;;;13.02;6.00;;;-0.30;99.90;;;;;;4986744;28;20054;-61
2022/04/03 05:37:37;;;;;;;14.13;6.53;;;-0.20;99.90;;;;;;4988419;28;20046;-61
2022/04/03 05:40:06;;;;;;;18.70;7.57;;;-0.20;99.90;;;;;;4990423;28;20408;-61
2022/04/03 05:42:35;;;;;;;12.75;7.28;;;-0.20;99.90;;;;;;4987420;28;20442;-60
2022/04/03 05:45:04;;;;;;;16.88;6.97;;;-0.10;99.90;;;;;;5006195;28;20050;-61
2022/04/03 05:47:33;;;;;;;15.98;6.75;;;-0.10;99.90;;;;;;5005963;28;20045;-61
2022/04/03 05:50:01;;;;;;;18.70;8.05;;;-0.10;99.90;;;;;;4967967;28;20413;-63
2022/04/03 05:52:39;;;;;;;14.82;7.93;;;0.00;99.90;;;;;;5005978;28;20038;-61
2022/04/03 05:55:08;;;;;;;15.98;7.82;;;0.00;99.90;;;;;;4986753;28;20407;-63
2022/04/03 05:57:37;;;;;;;16.70;8.07;;;0.00;99.90;;;;;;4997779;28;20069;-62
2022/04/03 06:00:06;;;;;;;13.65;7.65;;;0.10;99.90;;;;;;5005398;28;20045;-62
2022/04/03 06:03:02;;;;;;;21.45;9.45;;;0.10;99.90;;;;;;5005517;28;20045;-62
2022/04/03 06:05:34;;;;;;;17.85;8.55;;;0.10;99.90;;;;;;5002710;28;20427;-65
2022/04/03 06:08:02;;;;;;;20.92;8.40;;;0.20;99.90;;;;;;5000576;28;20054;-64
2022/04/03 06:10:31;;;;;;;15.88;7.70;;;0.20;99.90;;;;;;4989281;28;20061;-61
2022/04/03 06:13:05;;;;;;;14.18;7.03;;;0.30;99.90;;;;;;4990395;28;20038;-61
2022/04/03 06:15:42;;;;;;;18.95;8.73;;;0.30;99.90;;;;;;5008400;28;20053;-61
2022/04/03 06:18:12;;;;;;;19.23;7.35;;;0.40;99.90;;;;;;5001503;28;20053;-64
2022/04/03 06:20:41;;;;;;;15.60;7.90;;;0.40;99.90;;;;;;4991820;28;20053;-64
2022/04/03 06:23:20;;;;;;;14.75;7.53;;;0.40;99.90;;;;;;4960621;28;20038;-63
2022/04/03 06:25:58;;;;;;;14.85;7.60;;;0.50;99.90;;;;;;4992696;28;20052;-63
2022/04/03 06:28:26;;;;;;;22.00;8.85;;;0.50;99.90;;;;;;5009488;28;20429;-61
2022/04/03 06:30:55;;;;;;;20.13;8.85;;;0.60;99.90;;;;;;5008724;28;20042;-63
2022/04/03 06:33:23;;;;;;;18.63;8.68;;;0.70;99.90;;;;;;5008596;28;20058;-62
2022/04/03 06:35:50;;;;;;;13.13;7.70;;;0.70;99.90;;;;;;5007561;28;20049;-63
2022/04/03 06:38:18;;;;;;;18.48;8.25;;;0.80;99.90;;;;;;5007405;28;20045;-62
2022/04/03 06:40:55;;;;;;;13.73;8.15;;;0.80;99.90;;;;;;4978049;28;20046;-63
2022/04/03 06:43:29;;;;;;;14.15;7.85;;;0.80;99.90;;;;;;4996093;28;20042;-62
2022/04/03 06:45:58;;;;;;;16.83;7.65;;;0.90;99.90;;;;;;5008108;28;20482;-64
2022/04/03 06:48:27;;;;;;;18.88;8.57;;;0.90;99.90;;;;;;5005416;28;20054;-62
2022/04/03 06:50:55;;;;;;;24.60;7.75;;;1.00;99.90;;;;;;5005526;28;20050;-62
2022/04/03 06:53:23;;;;;;;18.45;8.35;;;1.00;99.90;;;;;;5004134;28;20058;-64
2022/04/03 06:55:50;;;;;;;14.43;7.88;;;1.00;99.90;;;;;;4987982;28;20049;-65
2022/04/03 06:58:18;;;;;;;16.73;7.70;;;1.10;99.90;;;;;;5002907;28;20053;-64
2022/04/03 07:00:52;;;;;;;21.60;8.25;;;1.10;99.90;;;;;;5004845;28;20054;-61
2022/04/03 07:03:19;;;;;;;15.32;7.90;;;1.20;99.90;;;;;;4998195;28;20047;-63
2022/04/03 07:05:48;;;;;;;16.15;7.53;;;1.30;99.90;;;;;;4985868;28;20042;-64
2022/04/03 07:08:16;;;;;;;18.23;8.10;;;1.30;99.90;;;;;;4993416;28;20054;-65
2022/04/03 07:10:44;;;;;;;18.48;8.65;;;1.40;99.90;;;;;;5008163;28;20748;-65
2022/04/03 07:13:13;;;;;;;15.47;8.40;;;1.50;99.90;;;;;;5004051;28;20057;-65
2022/04/03 07:15:41;;;;;;;14.27;7.90;;;1.50;99.90;;;;;;5004033;28;20520;-65
2022/04/03 07:18:09;;;;;;;16.13;7.93;;;1.60;99.90;;;;;;4994311;28;20042;-63
2022/04/03 07:20:36;;;;;;;15.65;8.57;;;1.60;99.90;;;;;;5011989;28;20054;-63
2022/04/03 07:23:04;;;;;;;18.23;9.63;;;1.70;99.90;;;;;;5000580;28;20034;-62
2022/04/03 07:25:32;;;;;;;19.13;9.70;;;1.80;99.90;;;;;;5011442;28;20054;-62
2022/04/03 07:27:59;;;;;;;19.92;10.30;;;1.90;99.90;;;;;;4982504;28;20059;-62
2022/04/03 07:30:27;;;;;;;18.38;9.75;;;2.00;99.90;;;;;;4971651;28;20038;-66
2022/04/03 07:32:55;;;;;;;22.63;10.85;;;2.10;99.90;;;;;;4995447;28;20447;-64
2022/04/03 07:35:23;;;;;;;17.23;9.43;;;2.20;99.90;;;;;;5011485;28;20038;-62
2022/04/03 07:37:50;;;;;;;20.77;10.00;;;2.30;99.90;;;;;;4993432;28;20089;-62
2022/04/03 07:40:18;;;;;;;20.85;10.18;;;2.40;99.90;;;;;;5007345;28;20397;-63
2022/04/03 07:43:06;;;;;;;17.85;9.10;;;2.50;99.90;;;;;;5006532;28;20398;-62
2022/04/03 07:45:34;;;;;;;20.40;10.02;;;2.60;99.90;;;;;;4991967;28;20046;-64
2022/04/03 07:48:02;;;;;;;17.98;9.63;;;2.80;99.90;;;;;;4982155;28;20058;-64
2022/04/03 07:50:30;;;;;;;16.48;8.65;;;2.90;99.90;;;;;;5011175;28;20046;-63
2022/04/03 07:52:57;;;;;;;17.50;9.50;;;3.00;99.90;;;;;;5010716;28;20393;-64
2022/04/03 07:55:25;;;;;;;18.15;9.40;;;3.10;99.90;;;;;;5008502;28;20049;-66
2022/04/03 07:57:53;;;;;;;16.02;10.38;;;3.20;99.90;;;;;;4985229;28;20054;-66
2022/04/03 08:00:20;;;;;;;20.08;8.77;;;3.30;99.90;;;;;;4991290;28;20089;-63
2022/04/03 08:02:48;;;;;;;20.50;9.50;;;3.40;99.90;;;;;;4990997;28;20042;-64
2022/04/03 08:05:16;;;;;;;24.13;9.45;;;3.50;99.90;;;;;;4998515;28;20050;-66
2022/04/03 08:07:48;;;;;;;19.27;9.55;;;3.60;99.90;;;;;;4986804;28;20038;-65
2022/04/03 08:10:20;;;;;;;17.33;9.00;;;3.60;99.90;;;;;;4974007;28;20410;-65
2022/04/03 08:12:50;;;;;;;16.13;9.35;;;3.70;99.90;;;;;;4990765;28;20046;-65
2022/04/03 08:15:19;;;;;;;19.42;8.95;;;3.90;99.90;;;;;;4991235;28;20042;-65
2022/04/03 08:17:47;;;;;;;12.40;8.05;;;3.90;99.90;;;;;;5010242;28;20057;-65
2022/04/03 08:20:17;;;;;;;16.95;9.27;;;4.10;99.90;;;;;;5010649;28;20049;-66
2022/04/03 08:22:46;;;;;;;16.17;9.77;;;4.20;99.90;;;;;;5003711;28;20046;-64
2022/04/03 08:25:15;;;;;;;;;;;4.30;99.90;;;;;;5010878;28;20041;-67
2022/04/03 08:27:44;;;;;;;20.48;9.20;;;4.40;99.90;;;;;;4987831;28;19949;-67
2022/04/03 08:30:33;;;;;;;14.65;8.80;;;4.60;99.90;;;;;;4991081;28;20050;-65
2022/04/03 08:33:04;;;;;;;17.10;8.13;;;4.70;99.90;;;;;;4992262;28;20049;-67
2022/04/03 08:35:33;;;;;;;16.80;9.25;;;4.90;99.90;;;;;;5007947;28;20061;-63
2022/04/03 08:38:01;;;;;;;15.02;7.90;;;5.10;99.90;;;;;;5000273;28;20488;-63
2022/04/03 08:40:29;;;;;;;11.25;6.22;;;5.20;99.90;;;;;;4992796;28;20504;-63
2022/04/03 08:42:56;;;;;;;11.55;6.72;;;5.40;99.90;;;;;;5001473;28;20049;-63
2022/04/03 08:45:24;;;;;;;9.57;5.68;;;5.50;99.90;;;;;;4974331;28;20038;-63
2022/04/03 08:47:55;;;;;;;11.00;5.57;;;5.60;99.90;;;;;;4985562;28;20065;-63
2022/04/03 08:50:25;;;;;;;;;;;5.70;99.90;;;;;;4991163;28;20779;-63
2022/04/03 08:52:54;;;;;;;10.70;5.45;;;5.70;99.90;;;;;;4982545;28;19929;-62
2022/04/03 08:55:22;;;;;;;11.80;6.60;;;5.80;99.90;;;;;;5010250;28;20050;-62
2022/04/03 08:57:51;;;;;;;10.57;6.50;;;5.90;99.90;;;;;;4991701;28;20046;-63
2022/04/03 09:00:19;;;;;;;11.25;6.85;;;6.00;99.90;;;;;;4992241;28;20042;-63
2022/04/03 09:02:47;;;;;;;12.40;6.30;;;6.10;99.90;;;;;;5007888;28;20050;-63
2022/04/03 09:05:15;;;;;;;13.32;6.38;;;6.20;99.90;;;;;;4990147;28;20042;-63
2022/04/03 09:07:43;;;;;;;10.40;6.13;;;6.40;99.90;;;;;;5007210;28;20397;-65
2022/04/03 09:10:14;;;;;;;11.45;6.13;;;6.50;99.90;;;;;;4975018;28;20061;-63
2022/04/03 09:12:47;;;;;;;12.65;6.18;;;6.60;99.90;;;;;;5008097;28;20273;-64
2022/04/03 09:15:25;;;;;;;10.00;6.60;;;6.70;99.90;;;;;;5005773;28;20049;-63
2022/04/03 09:17:57;;;;;;;9.68;6.97;;;6.80;99.90;;;;;;5002691;28;20513;-63
2022/04/03 09:20:31;;;;;;;11.20;6.22;;;6.80;99.90;;;;;;4998298;28;20049;-64
2022/04/03 09:23:02;;;;;;;12.07;6.95;;;6.80;99.90;;;;;;4981792;28;20046;-64
2022/04/03 09:25:41;;;;;;;12.75;5.97;;;6.80;99.90;;;;;;4996901;28;20049;-63
2022/04/03 09:28:11;;;;;;;14.02;7.25;;;6.90;99.90;;;;;;5006569;28;20049;-64
2022/04/03 09:30:43;;;;;;;11.63;6.35;;;6.90;99.90;;;;;;5008896;28;20057;-66
2022/04/03 09:33:13;;;;;;;11.45;6.45;;;6.90;99.90;;;;;;4997136;28;20052;-66
2022/04/03 09:35:55;;;;;;;12.57;7.20;;;6.90;99.90;;;;;;5008834;28;20053;-67
2022/04/03 09:38:24;;;;;;;9.40;5.57;;;6.90;99.90;;;;;;4980768;28;20058;-65
2022/04/03 09:40:53;;;;;;;10.27;6.18;;;6.80;99.90;;;;;;4972039;28;20054;-63
2022/04/03 09:43:26;;;;;;;13.70;6.30;;;6.80;99.90;;;;;;4976557;28;20046;-63
2022/04/03 09:46:01;;;;;;;9.50;5.93;;;6.90;99.90;;;;;;5000258;28;20421;-66
2022/04/03 09:48:33;;;;;;;12.32;6.70;;;7.00;99.90;;;;;;4997275;28;20042;-65
2022/04/03 09:51:19;;;;;;;11.73;5.03;;;7.30;99.90;;;;;;4986558;28;20052;-63
2022/04/03 09:53:53;;;;;;;10.60;6.47;;;7.30;99.90;;;;;;4998563;28;20049;-62
2022/04/03 09:56:29;;;;;;;9.82;5.15;;;7.40;99.90;;;;;;4997389;28;20042;-63
2022/04/03 09:59:03;;;;;;;16.25;5.90;;;7.50;99.90;;;;;;5004514;28;20054;-63
2022/04/03 10:01:35;;;;;;;7.90;5.32;;;7.50;99.90;;;;;;4993139;28;20053;-62
2022/04/03 10:04:09;;;;;;;10.60;5.00;;;7.60;99.90;;;;;;5001198;28;20042;-62
2022/04/03 10:06:40;;;;;;;8.40;4.78;;;7.80;99.90;;;;;;5002391;28;20053;-63
2022/04/03 10:09:11;;;;;;;11.63;5.32;;;7.90;99.90;;;;;;5005248;28;20041;-63
2022/04/03 10:11:40;;;;;;;6.57;3.88;;;8.10;99.90;;;;;;5007712;28;20061;-62
2022/04/03 10:14:11;;;;;;;7.25;3.90;;;8.30;99.90;;;;;;5000331;28;20050;-62
2022/04/03 10:16:40;;;;;;;6.43;3.63;;;8.40;99.90;;;;;;5005763;28;20050;-63
2022/04/03 10:19:08;;;;;;;4.32;2.35;;;8.40;99.90;;;;;;4999654;28;20038;-62
2022/04/03 10:21:51;;;;;;;7.38;2.97;;;8.50;99.90;;;;;;4978190;28;20046;-62
2022/04/03 10:24:21;;;;;;;5.13;2.88;;;8.70;99.90;;;;;;5002379;28;20044;-66
2022/04/03 10:26:58;;;;;;;10.63;3.50;;;8.80;99.90;;;;;;5007879;28;20046;-65
2022/04/03 10:29:31;;;;;;;5.78;3.75;;;9.00;99.90;;;;;;4989455;28;20038;-65
2022/04/03 10:32:03;;;;;;;6.30;2.78;;;9.20;99.90;;;;;;4993802;28;20054;-62
2022/04/03 10:34:44;;;;;;;4.40;2.30;;;9.40;99.90;;;;;;5003462;28;20492;-62
2022/04/03 10:37:36;;;;;;;6.15;2.80;;;9.60;99.90;;;;;;4994587;28;20493;-63
2022/04/03 10:40:07;;;;;;;7.18;3.17;;;9.50;99.90;;;;;;4998422;28;20057;-65
2022/04/03 10:42:56;;;;;;;3.92;2.58;;;9.40;99.90;;;;;;4989161;28;20528;-63
2022/04/03 10:45:34;;;;;;;6.17;2.73;;;9.10;99.90;;;;;;4997051;28;20049;-65
2022/04/03 10:48:21;;;;;;;3.75;3.17;;;8.90;99.90;;;;;;4999307;28;20057;-66
2022/04/03 10:51:02;;;;;;;5.15;2.80;;;8.70;99.90;;;;;;4999593;28;20051;-64
2022/04/03 10:53:35;;;;;;;4.85;2.95;;;8.70;99.90;;;;;;5001033;28;20049;-64
2022/04/03 10:56:08;;;;;;;5.78;3.40;;;8.70;99.90;;;;;;5001039;28;20038;-64
2022/04/03 10:58:45;;;;;;;8.02;3.10;;;8.80;99.90;;;;;;5011199;28;20054;-62
2022/04/03 11:01:31;;;;;;;7.72;3.38;;;8.70;99.90;;;;;;5010020;28;20046;-62
2022/04/03 11:04:08;;;;;;;7.45;3.13;;;8.70;99.90;;;;;;5000507;28;20057;-62
2022/04/03 11:06:38;;;;;;;6.00;3.20;;;8.60;99.90;;;;;;4991075;28;20054;-62
2022/04/03 11:09:11;;;;;;;3.95;2.88;;;8.50;99.90;;;;;;5003676;28;20071;-63
2022/04/03 11:11:49;;;;;;;5.32;2.42;;;8.40;99.90;;;;;;5002555;28;20050;-62
2022/04/03 11:14:56;;;;;;;3.88;2.10;;;8.30;99.90;;;;;;4996420;28;20062;-64
2022/04/03 11:17:51;;;;;;;6.53;1.75;;;8.30;99.90;;;;;;4998843;28;20054;-63
2022/04/03 11:20:40;;;;;;;3.50;1.98;;;8.30;99.80;;;;;;5008984;28;20045;-62
2022/04/03 11:23:14;;;;;;;2.92;1.88;;;8.40;99.90;;;;;;4995659;28;20045;-62
2022/04/03 11:25:43;;;;;;;7.32;2.97;;;8.50;99.90;;;;;;5008963;28;20069;-62
2022/04/03 11:28:12;;;;;;;3.97;1.30;;;8.50;99.90;;;;;;5011540;28;20064;-63
2022/04/03 11:30:41;;;;;;;2.85;1.50;;;8.60;99.90;;;;;;5009287;28;20046;-62
2022/04/03 11:33:10;;;;;;;4.47;2.10;;;8.70;98.70;;;;;;5011176;28;20397;-62
2022/04/03 11:35:40;;;;;;;3.25;1.83;;;8.80;98.60;;;;;;5010783;28;20056;-62
2022/04/03 11:38:10;;;;;;;4.57;2.30;;;8.70;98.70;;;;;;5010617;28;20046;-62
2022/04/03 11:40:40;;;;;;;3.75;2.15;;;8.60;99.10;;;;;;5010851;28;20046;-61
2022/04/03 11:43:12;;;;;;;4.57;2.53;;;8.60;99.60;;;;;;5009892;28;20054;-64
2022/04/03 11:45:40;;;;;;;8.35;2.08;;;8.50;99.90;;;;;;4993643;28;20038;-63
2022/04/03 11:48:23;;;;;;;2.85;1.92;;;8.40;99.90;;;;;;4985448;28;20058;-63
2022/04/03 11:51:05;;;;;;;8.32;2.28;;;8.40;99.90;;;;;;4991788;28;20053;-66
2022/04/03 11:53:33;;;;;;;3.20;2.05;;;8.30;99.90;;;;;;5006686;28;20042;-66
2022/04/03 11:56:08;;;;;;;4.60;2.10;;;8.30;99.90;;;;;;5010442;28;20481;-63
2022/04/03 11:58:44;;;;;;;3.42;2.00;;;8.30;99.90;;;;;;4981605;28;20038;-63
2022/04/03 12:01:13;;;;;;;5.88;3.70;;;8.40;99.90;;;;;;4974550;28;20387;-64
2022/04/03 12:03:40;;;;;;;2.90;1.90;;;8.40;99.90;;;;;;5006517;28;20548;-64
2022/04/03 12:06:13;;;;;;;5.30;2.13;;;8.50;99.90;;;;;;5010069;28;20048;-63
2022/04/03 12:08:49;;;;;;;3.83;1.45;;;8.60;99.90;;;;;;5006783;28;20054;-65
2022/04/03 12:11:19;;;;;;;5.00;1.65;;;8.70;99.90;;;;;;4991169;28;20161;-63
2022/04/03 12:13:47;;;;;;;3.33;1.50;;;8.90;99.90;;;;;;5002745;28;20073;-63
2022/04/03 12:16:21;;;;;;;9.00;2.22;;;9.00;98.90;;;;;;5010478;28;20054;-62
2022/04/03 12:18:55;;;;;;;1.88;1.40;;;9.20;98.50;;;;;;4989208;28;20054;-62
2022/04/03 12:21:46;;;;;;;3.55;1.65;;;9.40;98.40;;;;;;4994008;28;20377;-62
2022/04/03 12:24:17;;;;;;;1.27;0.85;;;9.80;98.90;;;;;;5002643;28;20048;-62
2022/04/03 12:26:54;;;;;;;4.57;1.60;;;10.00;96.80;;;;;;5010519;28;20397;-63
2022/04/03 12:29:24;;;;;;;3.05;1.25;;;10.40;96.10;;;;;;4992852;28;20053;-62
2022/04/03 12:32:02;;;;;;;3.58;1.20;;;11.00;95.50;;;;;;5004722;28;20050;-61
2022/04/03 12:34:40;;;;;;;2.85;1.73;;;11.50;93.90;;;;;;5003309;28;20500;-62
2022/04/03 12:37:09;;;;;;;2.00;1.20;;;12.00;92.90;;;;;;4997138;28;20046;-66
2022/04/03 12:39:45;;;;;;;3.75;1.63;;;12.40;92.30;;;;;;5003848;28;20061;-63
2022/04/03 12:42:24;;;;;;;2.05;1.55;;;12.90;91.60;;;;;;5000289;28;20050;-67
2022/04/03 12:45:19;;;;;;;1.85;1.02;;;13.20;85.30;;;;;;4990751;28;20039;-67
2022/04/03 12:47:56;;;;;;;2.25;1.00;;;13.40;80.30;;;;;;5000293;28;20046;-66
2022/04/03 12:50:31;;;;;;;5.50;1.65;;;13.60;80.10;;;;;;5007069;28;20046;-66
2022/04/03 12:53:01;;;;;;;2.42;1.27;;;14.00;79.10;;;;;;4992789;28;20046;-62
2022/04/03 12:55:34;;;;;;;2.95;1.30;;;14.40;74.20;;;;;;5008069;28;20046;-67
2022/04/03 13:01:10;;;;;;;3.75;1.83;;;14.80;71.40;;;;;;5000111;28;20068;-67
2022/04/03 13:03:39;;;;;;;2.03;1.30;;;15.00;71.50;;;;;;5000579;28;20490;-66
2022/04/03 13:06:07;;;;;;;3.10;1.50;;;15.10;72.10;;;;;;4993618;28;20046;-67
2022/04/03 13:08:44;;;;;;;2.65;1.73;;;15.30;70.90;;;;;;4995885;28;20042;-67